Time;durP1;ratioP1;P1;durP2;ratioP2;P2;SDS_P1;SDS_P2;PMS_P1;PMS_P2;Temp;Humidity;BMP_temperature;BMP_pressure;BME280_temperature;BME280_humidity;BME280_pressure;Samples;Min_cycle;Max_cycle;Signal;HPM_P1;HPM_P2
2021/12/26 00:01:09;;;;;;;14.85;8.65;;;;;;;1.04;100.00;147932.55;1731098;82;21049;-60
2021/12/26 00:03:35;;;;;;;15.32;8.18;;;;;;;0.98;100.00;147917.06;1733999;82;21110;-59
2021/12/26 00:06:06;;;;;;;14.83;8.05;;;;;;;0.92;100.00;147901.63;1734049;82;21060;-61
2021/12/26 00:08:36;;;;;;;14.58;8.30;;;;;;;0.85;100.00;147886.17;1733996;82;21123;-59
2021/12/26 00:11:04;;;;;;;18.87;8.35;;;;;;;0.78;100.00;147866.84;1744640;82;21470;-60
2021/12/26 00:13:31;;;;;;;26.07;8.70;;;;;;;0.72;100.00;147852.67;1738321;82;21589;-60
2021/12/26 00:15:59;;;;;;;16.25;7.30;;;;;;;0.67;100.00;147841.11;1739043;82;21133;-59
2021/12/26 00:18:25;;;;;;;18.57;8.55;;;;;;;0.64;100.00;147832.08;1729799;82;21103;-59
2021/12/26 00:20:52;;;;;;;15.75;8.93;;;;;;;0.61;100.00;147824.37;1740371;81;21068;-60
2021/12/26 00:23:20;;;;;;;12.40;7.45;;;;;;;0.58;100.00;147816.64;1728261;82;21009;-60
2021/12/26 00:25:48;;;;;;;12.95;7.08;;;;;;;0.56;100.00;147812.77;1734411;82;21032;-59
2021/12/26 00:28:14;;;;;;;19.07;7.83;;;;;;;0.54;100.00;147808.88;1737312;82;21778;-59
2021/12/26 00:30:42;;;;;;;15.60;8.10;;;;;;;0.54;100.00;147808.88;1738159;82;21112;-59
2021/12/26 00:33:09;;;;;;;14.10;7.12;;;;;;;0.53;100.00;147806.31;1733912;82;21059;-59
2021/12/26 00:35:36;;;;;;;15.08;7.33;;;;;;;0.55;100.00;147810.19;1711722;82;21514;-58
2021/12/26 00:38:02;;;;;;;13.72;8.00;;;;;;;0.52;100.00;147803.73;1708330;82;21052;-61
2021/12/26 00:40:32;;;;;;;14.87;7.62;;;;;;;0.50;100.00;147798.59;1710511;82;21083;-60
2021/12/26 00:42:59;;;;;;;14.20;7.58;;;;;;;0.49;100.00;147796.02;1735037;82;21072;-60
2021/12/26 00:45:26;;;;;;;15.58;7.53;;;;;;;0.49;100.00;147794.75;1733656;82;20969;-64
2021/12/26 00:47:54;;;;;;;10.23;5.60;;;;;;;0.50;100.00;147798.59;1693257;83;21093;-59
2021/12/26 00:50:25;;;;;;;9.28;5.45;;;;;;;0.49;100.00;147796.02;1716781;82;21426;-59
2021/12/26 00:52:52;;;;;;;9.60;4.60;;;;;;;0.49;100.00;147796.02;1725036;81;21129;-59
2021/12/26 00:55:19;;;;;;;10.08;4.95;;;;;;;0.49;100.00;147796.02;1713274;82;21048;-60
2021/12/26 00:57:46;;;;;;;11.97;5.45;;;;;;;0.48;100.00;147793.44;1738637;80;21041;-59
2021/12/26 01:00:18;;;;;;;8.08;4.35;;;;;;;0.48;100.00;147793.44;1754310;80;21052;-59
2021/12/26 01:02:46;;;;;;;7.62;4.17;;;;;;;0.46;100.00;147788.30;1753363;80;21130;-59
2021/12/26 01:05:13;;;;;;;7.37;4.45;;;;;;;0.45;100.00;147785.72;1720237;81;21557;-59
2021/12/26 01:10:18;;;;;;;6.42;4.25;;;;;;;0.41;100.00;147775.44;1747914;80;21044;-60
2021/12/26 01:12:47;;;;;;;6.95;3.90;;;;;;;0.39;100.00;147770.28;1745804;80;21012;-59
2021/12/26 01:15:14;;;;;;;6.90;3.77;;;;;;;0.36;100.00;147762.56;1761156;80;21004;-59
2021/12/26 01:17:44;;;;;;;10.93;4.03;;;;;;;0.33;100.00;147754.81;1757030;80;21045;-59
2021/12/26 01:20:25;;;;;;;8.90;4.28;;;;;;;0.33;100.00;147754.81;1752403;80;21075;-60
2021/12/26 01:22:47;;;;;;;8.25;4.50;;;;;;;0.34;100.00;147757.44;1727203;81;21632;-60
2021/12/26 01:25:15;;;;;;;9.90;5.25;;;;;;;0.36;100.00;147762.56;1729561;81;21090;-59
2021/12/26 01:27:42;;;;;;;10.03;5.87;;;;;;;0.37;100.00;147765.14;1731995;81;21091;-59
2021/12/26 01:30:11;;;;;;;8.55;5.03;;;;;;;0.36;100.00;147762.56;1732414;81;22285;-59
2021/12/26 01:32:40;;;;;;;9.55;4.78;;;;;;;0.36;100.00;147762.56;1729878;81;21092;-59
2021/12/26 01:35:09;;;;;;;6.03;3.85;;;;;;;0.36;100.00;147762.56;1763410;80;21035;-59
2021/12/26 01:37:43;;;;;;;6.12;4.05;;;;;;;0.36;100.00;147762.56;1746648;80;21584;-60
2021/12/26 01:40:21;;;;;;;7.70;4.10;;;;;;;0.35;100.00;147760.00;1742541;80;21044;-59
2021/12/26 01:43:02;;;;;;;9.40;5.15;;;;;;;0.33;100.00;147754.81;1758453;80;21102;-60
2021/12/26 01:45:32;;;;;;;7.62;4.65;;;;;;;0.31;100.00;147749.66;1706510;81;20984;-60
2021/12/26 01:48:03;;;;;;;7.12;4.58;;;;;;;0.30;100.00;147747.09;1722371;82;21576;-61
2021/12/26 01:50:31;;;;;;;7.83;3.95;;;;;;;0.31;100.00;147749.66;1728188;80;21107;-60
2021/12/26 01:52:58;;;;;;;9.68;5.28;;;;;;;0.31;100.00;147749.66;1752522;80;21073;-60
2021/12/26 01:55:43;;;;;;;9.03;5.10;;;;;;;0.31;100.00;147750.97;1758562;80;21827;-59
2021/12/26 01:58:14;;;;;;;7.70;4.40;;;;;;;0.30;100.00;147747.09;1727716;81;21107;-60
2021/12/26 02:00:44;;;;;;;7.65;3.12;;;;;;;0.31;100.00;147749.66;1739690;80;21223;-60
2021/12/26 02:03:11;;;;;;;8.48;3.90;;;;;;;0.32;100.00;147752.23;1771669;80;21087;-60
2021/12/26 02:05:39;;;;;;;6.33;3.83;;;;;;;0.34;100.00;147757.44;1741714;80;20958;-59
2021/12/26 02:08:07;;;;;;;6.20;4.22;;;;;;;0.36;100.00;147762.56;1737203;80;21037;-61
2021/12/26 02:10:35;;;;;;;8.83;3.65;;;;;;;0.37;100.00;147765.14;1713410;82;21074;-59
2021/12/26 02:13:02;;;;;;;7.80;4.42;;;;;;;0.36;100.00;147763.83;1755212;80;21076;-61
2021/12/26 02:15:29;;;;;;;6.12;3.72;;;;;;;0.34;100.00;147758.69;1739023;80;21497;-59
2021/12/26 02:18:06;;;;;;;5.08;3.08;;;;;;;0.33;100.00;147754.81;1754876;80;21551;-60
2021/12/26 02:20:48;;;;;;;6.80;3.60;;;;;;;0.32;100.00;147752.23;1744543;80;21119;-60
2021/12/26 02:23:17;;;;;;;6.20;3.58;;;;;;;0.33;100.00;147754.81;1760690;80;21134;-59
2021/12/26 02:28:15;;;;;;;10.08;3.55;;;;;;;0.35;100.00;147760.00;1752349;80;21036;-58
2021/12/26 02:30:42;;;;;;;4.97;3.35;;;;;;;0.36;100.00;147762.56;1747488;80;21045;-59
2021/12/26 02:33:12;;;;;;;6.97;3.80;;;;;;;0.37;100.00;147765.14;1756739;80;21103;-60
2021/12/26 02:35:40;;;;;;;6.83;3.87;;;;;;;0.38;100.00;147767.72;1751436;80;20921;-60
2021/12/26 02:38:06;;;;;;;5.08;2.95;;;;;;;0.39;100.00;147770.28;1750584;80;21027;-60
2021/12/26 02:40:34;;;;;;;6.33;3.40;;;;;;;0.38;100.00;147767.72;1750699;80;21009;-60
2021/12/26 02:43:01;;;;;;;4.50;3.12;;;;;;;0.37;100.00;147765.14;1758466;80;21093;-60
2021/12/26 02:45:27;;;;;;;4.80;3.05;;;;;;;0.38;100.00;147767.72;1758622;80;21343;-59
2021/12/26 02:47:55;;;;;;;9.68;3.80;;;;;;;0.38;100.00;147767.72;1748333;80;21616;-60
2021/12/26 02:50:25;;;;;;;6.58;3.65;;;;;;;0.39;100.00;147771.55;1752648;80;21109;-60
2021/12/26 02:52:53;;;;;;;6.78;3.47;;;;;;;0.40;100.00;147774.13;1755656;80;20985;-60
2021/12/26 02:55:21;;;;;;;10.28;3.20;;;;;;;0.41;100.00;147775.44;1754627;80;20949;-61
2021/12/26 02:57:55;;;;;;;17.12;4.33;;;;;;;0.41;100.00;147776.69;1712386;82;21506;-59
2021/12/26 03:00:25;;;;;;;5.95;2.98;;;;;;;0.45;100.00;147784.47;1703132;84;21059;-61
2021/12/26 03:02:54;;;;;;;7.12;3.25;;;;;;;0.46;100.00;147788.30;1703594;83;21469;-61
2021/12/26 03:05:24;;;;;;;5.92;3.12;;;;;;;0.46;100.00;147788.30;1736717;82;21430;-60
2021/12/26 03:07:50;;;;;;;9.08;3.22;;;;;;;0.47;100.00;147790.87;1690125;82;21085;-61
2021/12/26 03:10:24;;;;;;;5.08;2.52;;;;;;;0.48;100.00;147792.19;1712377;82;22345;-60
2021/12/26 03:12:57;;;;;;;5.65;2.83;;;;;;;0.47;100.00;147790.87;1714318;82;21508;-59
2021/12/26 03:15:25;;;;;;;4.90;3.02;;;;;;;0.47;100.00;147790.87;1716392;82;21022;-60
2021/12/26 03:17:53;;;;;;;4.08;2.55;;;;;;;0.45;100.00;147785.72;1713452;82;21115;-60
2021/12/26 03:20:23;;;;;;;6.12;3.22;;;;;;;0.44;100.00;147783.16;1692239;83;21090;-60
2021/12/26 03:22:50;;;;;;;4.70;3.05;;;;;;;0.45;100.00;147785.72;1721935;81;21091;-60
2021/12/26 03:25:20;;;;;;;16.35;6.50;;;;;;;0.45;100.00;147785.72;1725922;81;21030;-60
2021/12/26 03:27:47;;;;;;;6.08;3.20;;;;;;;0.45;100.00;147785.72;1723743;82;21019;-60
2021/12/26 03:30:17;;;;;;;5.25;3.25;;;;;;;0.43;100.00;147780.58;1719150;82;21091;-59
2021/12/26 03:32:44;;;;;;;4.35;2.55;;;;;;;0.40;100.00;147772.86;1739092;82;21111;-60
2021/12/26 03:35:12;;;;;;;4.33;2.30;;;;;;;0.38;100.00;147767.72;1729657;82;21537;-60
2021/12/26 03:37:39;;;;;;;3.42;2.22;;;;;;;0.36;100.00;147763.83;1711702;82;21391;-59
2021/12/26 03:40:09;;;;;;;5.95;2.50;;;;;;;0.37;100.00;147765.14;1732495;82;21044;-59
2021/12/26 03:42:36;;;;;;;5.87;2.70;;;;;;;0.37;100.00;147765.14;1734965;82;21435;-60
2021/12/26 03:45:05;;;;;;;4.20;2.65;;;;;;;0.38;100.00;147767.72;1740760;82;21091;-60
2021/12/26 03:47:32;;;;;;;21.20;3.33;;;;;;;0.36;100.00;147763.83;1739237;82;21953;-60
2021/12/26 03:50:02;;;;;;;19.87;3.35;;;;;;;0.37;100.00;147766.41;1672925;83;21131;-60
2021/12/26 03:52:30;;;;;;;4.55;2.30;;;;;;;0.38;100.00;147768.97;1734507;82;20961;-60
2021/12/26 03:54:57;;;;;;;7.03;2.50;;;;;;;0.37;100.00;147765.14;1713222;82;21057;-61
2021/12/26 03:57:24;;;;;;;4.78;2.40;;;;;;;0.38;100.00;147767.72;1715337;82;21005;-60
2021/12/26 03:59:51;;;;;;;15.88;2.75;;;;;;;0.37;100.00;147765.14;1722552;82;21733;-61
2021/12/26 04:02:17;;;;;;;11.97;2.15;;;;;;;0.37;100.00;147765.14;1732025;81;21027;-60
2021/12/26 04:04:44;;;;;;;8.58;2.42;;;;;;;0.36;100.00;147762.56;1730041;81;21095;-59
2021/12/26 04:07:11;;;;;;;3.70;2.50;;;;;;;0.35;100.00;147761.27;1733487;81;21060;-61
2021/12/26 04:09:38;;;;;;;6.40;3.22;;;;;;;0.37;100.00;147766.41;1742459;81;20869;-60
2021/12/26 04:12:08;;;;;;;4.87;2.55;;;;;;;0.37;100.00;147765.14;1753810;81;21183;-60
2021/12/26 04:14:35;;;;;;;6.47;2.52;;;;;;;0.37;100.00;147766.41;1746192;81;21433;-60
2021/12/26 04:17:04;;;;;;;4.50;2.40;;;;;;;0.37;100.00;147766.41;1739157;81;21046;-61
2021/12/26 04:19:31;;;;;;;3.92;2.30;;;;;;;0.35;100.00;147760.00;1716472;81;21529;-61
2021/12/26 04:21:58;;;;;;;3.75;2.30;;;;;;;0.35;100.00;147760.00;1736873;81;21153;-60
2021/12/26 04:24:25;;;;;;;3.90;2.22;;;;;;;0.35;100.00;147760.00;1741734;80;21837;-61
2021/12/26 04:26:52;;;;;;;5.67;2.50;;;;;;;0.34;100.00;147758.69;1740027;80;21107;-60
2021/12/26 04:29:18;;;;;;;4.83;2.40;;;;;;;0.34;100.00;147757.44;1746346;80;21063;-60
2021/12/26 04:31:46;;;;;;;10.63;3.22;;;;;;;0.34;100.00;147757.44;1736200;80;21568;-61
2021/12/26 04:34:14;;;;;;;7.55;4.25;;;;;;;0.35;100.00;147760.00;1712775;81;21063;-60
2021/12/26 04:36:41;;;;;;;11.25;4.22;;;;;;;0.37;100.00;147765.14;1737263;81;21508;-60
2021/12/26 04:39:08;;;;;;;16.12;4.53;;;;;;;0.37;100.00;147765.14;1740390;81;21054;-65
2021/12/26 04:41:35;;;;;;;28.75;5.22;;;;;;;0.35;100.00;147760.00;1742902;81;21143;-61
2021/12/26 04:44:23;;;;;;;26.97;4.90;;;;;;;0.31;100.00;147750.97;1740109;80;21039;-60
2021/12/26 04:46:59;;;;;;;14.45;4.12;;;;;;;0.27;100.00;147740.69;1708428;82;21452;-61
2021/12/26 04:49:27;;;;;;;21.55;4.58;;;;;;;0.23;100.00;147731.66;1749356;81;23144;-60
2021/12/26 04:51:55;;;;;;;18.45;4.78;;;;;;;0.19;100.00;147721.38;1709862;81;21114;-62
2021/12/26 04:54:23;;;;;;;4.65;3.22;;;;;;;0.15;100.00;147711.08;1703598;83;21618;-60
2021/12/26 04:56:50;;;;;;;12.33;3.72;;;;;;;0.11;100.00;147700.75;1734175;81;21096;-61
2021/12/26 04:59:18;;;;;;;23.55;5.10;;;;;;;0.08;100.00;147694.34;1736076;81;21596;-60
2021/12/26 05:01:44;;;;;;;14.75;4.45;;;;;;;0.09;100.00;147695.59;1698103;82;21775;-60
2021/12/26 05:04:11;;;;;;;22.98;4.65;;;;;;;0.09;100.00;147695.59;1696484;82;21427;-60
2021/12/26 05:06:38;;;;;;;13.90;3.87;;;;;;;0.10;100.00;147698.17;1706935;82;21085;-60
2021/12/26 05:09:07;;;;;;;17.10;3.85;;;;;;;0.11;100.00;147700.75;1707327;82;21159;-61
2021/12/26 05:11:36;;;;;;;4.97;2.92;;;;;;;0.09;100.00;147695.59;1714707;82;21111;-65
2021/12/26 05:14:03;;;;;;;7.78;3.95;;;;;;;0.10;100.00;147698.17;1713155;82;21903;-66
2021/12/26 05:16:32;;;;;;;5.10;2.92;;;;;;;0.10;100.00;147699.48;1708611;82;21737;-61
2021/12/26 05:18:59;;;;;;;6.03;2.80;;;;;;;0.12;100.00;147703.36;1703485;82;21085;-61
2021/12/26 05:21:26;;;;;;;6.47;3.35;;;;;;;0.13;100.00;147707.19;1712495;82;21471;-61
2021/12/26 05:23:53;;;;;;;8.18;2.70;;;;;;;0.14;100.00;147708.50;1737303;81;21576;-59
2021/12/26 05:26:21;;;;;;;5.35;2.92;;;;;;;0.15;100.00;147711.08;1707131;82;21032;-65
2021/12/26 05:28:47;;;;;;;5.30;2.50;;;;;;;0.15;100.00;147711.08;1736439;82;21092;-65
2021/12/26 05:31:15;;;;;;;6.72;3.42;;;;;;;0.16;100.00;147713.66;1736636;82;21075;-60
2021/12/26 05:33:42;;;;;;;6.58;2.83;;;;;;;0.16;100.00;147713.66;1739652;82;21448;-65
2021/12/26 05:36:09;;;;;;;4.37;2.60;;;;;;;0.19;100.00;147720.06;1741565;82;21063;-60
2021/12/26 05:38:38;;;;;;;5.03;2.80;;;;;;;0.21;100.00;147726.50;1736776;81;21887;-61
2021/12/26 05:41:06;;;;;;;4.37;2.75;;;;;;;0.21;100.00;147725.20;1729529;80;21444;-60
2021/12/26 05:43:35;;;;;;;5.67;2.85;;;;;;;0.19;100.00;147721.38;1739668;82;21029;-61
2021/12/26 05:46:02;;;;;;;3.33;2.37;;;;;;;0.20;100.00;147723.94;1734079;81;21055;-61
2021/12/26 05:48:38;;;;;;;4.22;2.58;;;;;;;0.21;100.00;147726.50;1737271;81;21034;-65
2021/12/26 05:51:06;;;;;;;5.53;2.72;;;;;;;0.18;99.94;147718.80;1714457;82;21999;-65
2021/12/26 05:53:35;;;;;;;3.85;2.40;;;;;;;0.14;99.62;147709.77;1677812;82;21597;-59
2021/12/26 05:56:03;;;;;;;5.35;2.60;;;;;;;0.13;99.41;147705.94;1710523;82;21084;-65
2021/12/26 05:58:30;;;;;;;5.78;3.17;;;;;;;0.12;99.01;147703.36;1716861;81;21079;-64
2021/12/26 06:00:59;;;;;;;4.53;2.62;;;;;;;0.10;99.23;147698.17;1748064;81;21060;-65
2021/12/26 06:03:26;;;;;;;4.78;2.62;;;;;;;0.09;99.14;147695.59;1743822;82;21508;-65
2021/12/26 06:05:53;;;;;;;6.05;3.10;;;;;;;0.09;98.99;147695.59;1720017;82;21826;-65
2021/12/26 06:08:21;;;;;;;5.28;3.10;;;;;;;0.08;98.61;147693.03;1748012;82;21060;-65
2021/12/26 06:10:48;;;;;;;4.62;3.00;;;;;;;0.07;98.84;147690.45;1746114;81;21566;-61
2021/12/26 06:13:16;;;;;;;3.98;2.72;;;;;;;0.08;98.99;147694.34;1716342;82;21065;-60
2021/12/26 06:15:43;;;;;;;5.05;3.10;;;;;;;0.10;99.15;147698.17;1702683;82;21142;-60
2021/12/26 06:18:09;;;;;;;7.72;3.80;;;;;;;0.12;99.29;147703.36;1722380;82;21117;-60
2021/12/26 06:20:47;;;;;;;8.18;4.22;;;;;;;0.09;99.19;147696.91;1661816;84;21472;-60
2021/12/26 06:23:32;;;;;;;;;;;;;;;0.06;99.22;147687.87;1727502;82;21246;-61
2021/12/26 06:26:13;;;;;;;7.25;4.00;;;;;;;-0.01;99.50;147672.45;1746608;81;20178;-60
2021/12/26 06:28:41;;;;;;;6.22;3.60;;;;;;;-0.07;99.78;147657.02;1742934;82;21809;-60
2021/12/26 06:31:26;;;;;;;7.97;4.10;;;;;;;-0.13;100.00;147640.28;1723147;82;26731;-61
2021/12/26 06:33:58;;;;;;;8.30;3.95;;;;;;;-0.18;100.00;147628.69;1709428;82;21127;-61
2021/12/26 06:36:43;;;;;;;;;;;;;;;-0.22;100.00;147619.72;1727037;82;20993;-59
2021/12/26 06:39:28;;;;;;;10.63;4.13;;;;;;;-0.27;100.00;147605.55;1725285;82;20141;-61
2021/12/26 06:42:09;;;;;;;12.28;4.22;;;;;;;-0.30;100.00;147599.09;1688937;81;21731;-60
2021/12/26 06:44:38;;;;;;;6.97;3.40;;;;;;;-0.30;100.00;147599.09;1723950;82;20992;-60
2021/12/26 06:47:09;;;;;;;7.65;3.60;;;;;;;-0.30;100.00;147600.41;1745284;82;21023;-60
2021/12/26 06:49:38;;;;;;;6.00;3.30;;;;;;;-0.31;100.00;147597.84;1749988;80;21532;-60
2021/12/26 06:52:06;;;;;;;5.42;3.30;;;;;;;-0.31;100.00;147597.84;1727496;82;21067;-60
2021/12/26 06:54:33;;;;;;;5.92;2.72;;;;;;;-0.33;100.00;147592.69;1724642;81;21945;-60
2021/12/26 06:57:00;;;;;;;9.85;3.47;;;;;;;-0.31;100.00;147596.53;1717629;82;21048;-60
2021/12/26 06:59:27;;;;;;;6.10;2.95;;;;;;;-0.31;100.00;147597.84;1723661;80;21532;-62
2021/12/26 07:01:54;;;;;;;5.90;3.22;;;;;;;-0.29;100.00;147601.66;1762259;80;21064;-61
2021/12/26 07:04:21;;;;;;;7.92;3.60;;;;;;;-0.30;100.00;147600.41;1761756;80;21615;-60
2021/12/26 07:06:48;;;;;;;5.37;2.98;;;;;;;-0.30;100.00;147599.09;1759859;80;21827;-60
2021/12/26 07:09:17;;;;;;;8.78;3.52;;;;;;;-0.30;100.00;147600.41;1759616;80;21500;-60
2021/12/26 07:11:44;;;;;;;5.75;2.90;;;;;;;-0.27;100.00;147605.55;1764298;80;21073;-60
2021/12/26 07:14:13;;;;;;;16.10;3.45;;;;;;;-0.26;100.00;147609.38;1759423;80;21092;-61
2021/12/26 07:16:39;;;;;;;13.60;4.08;;;;;;;-0.26;100.00;147608.13;1763091;80;21094;-60
2021/12/26 07:19:07;;;;;;;9.15;3.40;;;;;;;-0.25;100.00;147610.69;1763416;80;21939;-60
2021/12/26 07:21:35;;;;;;;12.25;4.05;;;;;;;-0.24;100.00;147613.27;1757753;80;20989;-60
2021/12/26 07:24:05;;;;;;;8.55;4.08;;;;;;;-0.27;100.00;147606.81;1767013;80;21068;-60
2021/12/26 07:26:33;;;;;;;6.72;3.62;;;;;;;-0.31;100.00;147597.84;1762877;80;21045;-61
2021/12/26 07:29:00;;;;;;;6.67;3.65;;;;;;;-0.30;100.00;147600.41;1756210;80;21497;-64
2021/12/26 07:31:28;;;;;;;9.28;3.67;;;;;;;-0.32;100.00;147595.27;1758108;80;21782;-66
2021/12/26 07:33:57;;;;;;;4.87;2.95;;;;;;;-0.31;100.00;147597.84;1755313;80;21085;-61
2021/12/26 07:36:24;;;;;;;7.58;3.70;;;;;;;-0.30;100.00;147600.41;1753085;80;21036;-60
2021/12/26 07:39:08;;;;;;;5.95;3.87;;;;;;;-0.31;100.00;147596.53;1760928;80;21033;-60
2021/12/26 07:41:35;;;;;;;7.47;3.65;;;;;;;-0.34;100.00;147590.06;1756175;80;21011;-60
2021/12/26 07:44:02;;;;;;;9.08;4.15;;;;;;;-0.33;100.00;147592.69;1728974;81;22595;-60
2021/12/26 07:46:46;;;;;;;8.23;3.20;;;;;;;-0.35;100.00;147587.50;1691130;82;21699;-61
2021/12/26 07:49:15;;;;;;;5.47;3.05;;;;;;;-0.34;100.00;147590.06;1739950;80;21091;-60
2021/12/26 07:52:00;;;;;;;7.53;3.83;;;;;;;-0.35;100.00;147587.50;1758449;80;21072;-60
2021/12/26 07:54:46;;;;;;;9.15;4.30;;;;;;;-0.37;100.00;147582.36;1763164;80;20976;-65
2021/12/26 07:57:32;;;;;;;;;;;;;;;-0.35;100.00;147587.50;1762284;80;21132;-65
2021/12/26 08:00:18;;;;;;;6.93;3.63;;;;;;;-0.34;100.00;147590.06;1763562;80;20197;-65
2021/12/26 08:02:54;;;;;;;7.65;4.20;;;;;;;-0.33;100.00;147592.69;1758138;80;21065;-66
2021/12/26 08:05:39;;;;;;;7.92;4.00;;;;;;;-0.31;100.00;147596.53;1755062;80;21111;-65
2021/12/26 08:08:25;;;;;;;11.10;4.30;;;;;;;-0.32;100.00;147595.27;1755197;81;21325;-66
2021/12/26 08:10:52;;;;;;;8.60;4.15;;;;;;;-0.34;100.00;147590.06;1763129;80;21921;-65
2021/12/26 08:13:19;;;;;;;8.20;3.80;;;;;;;-0.38;100.00;147578.53;1763756;80;21052;-65
2021/12/26 08:15:45;;;;;;;8.15;3.92;;;;;;;-0.39;100.00;147577.22;1758080;80;21068;-65
2021/12/26 08:18:12;;;;;;;8.83;4.37;;;;;;;-0.37;100.00;147582.36;1763176;80;21067;-66
2021/12/26 08:20:39;;;;;;;6.22;3.77;;;;;;;-0.37;100.00;147581.09;1743951;80;21056;-64
2021/12/26 08:23:05;;;;;;;8.08;4.40;;;;;;;-0.36;100.00;147584.94;1728947;81;22393;-65
2021/12/26 08:25:32;;;;;;;11.53;4.72;;;;;;;-0.36;100.00;147584.94;1762570;80;21021;-65
2021/12/26 08:27:59;;;;;;;8.78;4.47;;;;;;;-0.33;100.00;147591.38;1759080;81;21056;-64
2021/12/26 08:30:27;;;;;;;7.25;4.12;;;;;;;-0.30;100.00;147600.41;1754828;80;20991;-65
2021/12/26 08:32:58;;;;;;;10.08;4.67;;;;;;;-0.32;100.00;147595.27;1754591;80;21079;-65
2021/12/26 08:35:23;;;;;;;10.47;4.60;;;;;;;-0.32;100.00;147595.27;1759146;80;21160;-65
2021/12/26 08:37:50;;;;;;;9.68;4.70;;;;;;;-0.31;100.00;147597.84;1763994;80;21032;-65
2021/12/26 08:40:17;;;;;;;8.63;4.50;;;;;;;-0.32;100.00;147595.27;1732516;80;21585;-64
2021/12/26 08:42:44;;;;;;;13.90;4.75;;;;;;;-0.33;100.00;147592.69;1749634;80;21040;-63
2021/12/26 08:45:11;;;;;;;9.40;4.05;;;;;;;-0.37;100.00;147582.36;1760971;80;21106;-65
2021/12/26 08:47:39;;;;;;;7.37;4.12;;;;;;;-0.40;100.00;147573.37;1727437;81;21462;-65
2021/12/26 08:50:08;;;;;;;11.45;4.60;;;;;;;-0.42;100.00;147569.50;1732315;81;21041;-64
2021/12/26 08:52:35;;;;;;;7.58;4.10;;;;;;;-0.40;100.00;147573.37;1733924;80;21032;-65
2021/12/26 08:55:02;;;;;;;6.60;3.42;;;;;;;-0.36;100.00;147584.94;1742394;80;21108;-66
2021/12/26 08:57:30;;;;;;;6.20;3.47;;;;;;;-0.36;100.00;147584.94;1771382;80;21276;-65
2021/12/26 08:59:57;;;;;;;7.60;3.98;;;;;;;-0.39;100.00;147577.22;1735416;80;21634;-64
2021/12/26 09:02:24;;;;;;;8.05;3.60;;;;;;;-0.42;100.00;147569.50;1764695;80;21065;-64
2021/12/26 09:04:51;;;;;;;8.63;3.77;;;;;;;-0.44;100.00;147564.36;1757270;80;21071;-65
2021/12/26 09:07:19;;;;;;;7.55;3.50;;;;;;;-0.44;100.00;147564.36;1757209;80;21428;-63
2021/12/26 09:09:48;;;;;;;5.40;3.12;;;;;;;-0.41;100.00;147570.81;1714806;81;20954;-64
2021/12/26 09:12:14;;;;;;;6.90;3.77;;;;;;;-0.40;100.00;147574.64;1756710;80;21106;-63
2021/12/26 09:14:41;;;;;;;5.90;3.37;;;;;;;-0.39;100.00;147577.22;1716872;82;20953;-63
2021/12/26 09:17:08;;;;;;;7.67;4.12;;;;;;;-0.43;100.00;147566.94;1750455;80;21537;-63
2021/12/26 09:19:35;;;;;;;7.37;3.83;;;;;;;-0.45;100.00;147563.06;1754545;80;21006;-64
2021/12/26 09:22:07;;;;;;;8.00;3.70;;;;;;;-0.43;100.00;147566.94;1753525;80;21055;-65
2021/12/26 09:24:34;;;;;;;8.88;4.03;;;;;;;-0.44;100.00;147564.36;1753639;80;21090;-64
2021/12/26 09:27:01;;;;;;;9.35;3.92;;;;;;;-0.46;100.00;147560.48;1755843;80;21111;-64
2021/12/26 09:29:28;;;;;;;9.48;4.20;;;;;;;-0.48;100.00;147554.08;1755332;80;21015;-65
2021/12/26 09:31:56;;;;;;;6.25;3.70;;;;;;;-0.49;100.00;147552.77;1757188;80;21036;-65
2021/12/26 09:34:24;;;;;;;9.15;4.37;;;;;;;-0.48;100.00;147554.08;1754347;80;21051;-66
2021/12/26 09:36:51;;;;;;;8.13;4.12;;;;;;;-0.46;100.00;147560.48;1753007;80;21500;-64
2021/12/26 09:39:18;;;;;;;6.83;3.87;;;;;;;-0.44;100.00;147564.36;1753768;80;21072;-64
2021/12/26 09:41:44;;;;;;;11.93;4.22;;;;;;;-0.44;100.00;147565.67;1753063;80;21469;-64
2021/12/26 09:44:11;;;;;;;7.92;4.05;;;;;;;-0.39;100.00;147577.22;1755749;80;20999;-65
2021/12/26 09:46:37;;;;;;;13.30;4.03;;;;;;;-0.38;100.00;147579.78;1758557;80;21000;-65
2021/12/26 09:49:04;;;;;;;6.92;3.83;;;;;;;-0.39;100.00;147577.22;1754591;80;21456;-64
2021/12/26 09:51:32;;;;;;;8.60;4.35;;;;;;;-0.38;100.00;147578.53;1755854;80;21065;-64
2021/12/26 09:53:58;;;;;;;8.05;4.33;;;;;;;-0.37;100.00;147582.36;1754681;80;21051;-65
2021/12/26 09:56:26;;;;;;;9.33;4.58;;;;;;;-0.34;100.00;147590.06;1756912;80;21079;-65
2021/12/26 09:58:59;;;;;;;7.05;4.20;;;;;;;-0.35;100.00;147587.50;1752929;81;21072;-64
2021/12/26 10:01:34;;;;;;;9.40;4.45;;;;;;;-0.35;100.00;147587.50;1762133;80;21394;-63
2021/12/26 10:04:19;;;;;;;12.70;4.35;;;;;;;-0.36;100.00;147584.94;1767658;80;21485;-64
2021/12/26 10:06:49;;;;;;;11.38;3.95;;;;;;;-0.35;100.00;147586.23;1766798;80;20989;-64
2021/12/26 10:09:15;;;;;;;12.65;4.33;;;;;;;-0.36;100.00;147584.94;1765111;80;21481;-63
2021/12/26 10:11:46;;;;;;;9.48;4.58;;;;;;;-0.38;100.00;147578.53;1766588;80;21018;-65
2021/12/26 10:14:18;;;;;;;9.00;4.83;;;;;;;-0.44;100.00;147564.36;1766498;80;21122;-62
2021/12/26 10:16:48;;;;;;;7.58;4.03;;;;;;;-0.48;100.00;147554.08;1772323;80;21461;-62
2021/12/26 10:19:17;;;;;;;7.22;4.47;;;;;;;-0.48;100.00;147554.08;1773936;80;21092;-61
2021/12/26 10:21:51;;;;;;;7.87;4.03;;;;;;;-0.51;100.00;147546.37;1770099;80;21028;-63
2021/12/26 10:24:29;;;;;;;8.58;4.15;;;;;;;-0.50;100.00;147548.94;1764895;80;21055;-64
2021/12/26 10:27:04;;;;;;;7.37;4.65;;;;;;;-0.51;100.00;147546.37;1745994;81;21014;-63
2021/12/26 10:29:45;;;;;;;9.18;5.00;;;;;;;-0.50;100.00;147548.94;1728300;81;21165;-63
2021/12/26 10:32:18;;;;;;;9.38;4.72;;;;;;;-0.48;100.00;147554.08;1760379;80;21106;-65
2021/12/26 10:35:08;;;;;;;7.90;4.08;;;;;;;-0.45;100.00;147561.80;1727651;82;21043;-65
2021/12/26 10:37:46;;;;;;;8.10;4.60;;;;;;;-0.42;100.00;147569.50;1749658;80;21056;-64
2021/12/26 10:40:19;;;;;;;7.03;4.28;;;;;;;-0.43;100.00;147566.94;1766497;80;21784;-64
2021/12/26 10:42:54;;;;;;;10.23;4.45;;;;;;;-0.45;100.00;147561.80;1722985;82;21013;-64
2021/12/26 10:45:24;;;;;;;6.70;4.00;;;;;;;-0.48;100.00;147555.34;1771415;80;21023;-65
2021/12/26 10:47:55;;;;;;;8.75;4.42;;;;;;;-0.50;100.00;147548.94;1767453;80;20989;-64
2021/12/26 10:50:24;;;;;;;13.00;4.70;;;;;;;-0.50;100.00;147548.94;1770123;80;20987;-65
2021/12/26 10:52:59;;;;;;;7.15;4.05;;;;;;;-0.50;100.00;147548.94;1763927;80;21850;-64
2021/12/26 10:55:40;;;;;;;6.40;4.08;;;;;;;-0.46;100.00;147559.22;1768499;80;21580;-64
2021/12/26 10:58:14;;;;;;;8.65;4.35;;;;;;;-0.49;100.00;147552.77;1717641;81;22128;-64
2021/12/26 11:00:43;;;;;;;;;;;;;;;-0.46;100.00;147559.22;1756590;80;21497;-64
2021/12/26 11:03:12;;;;;;;11.43;4.40;;;;;;;-0.43;100.00;147566.94;1726113;82;20222;-63
2021/12/26 11:05:44;;;;;;;9.18;4.28;;;;;;;-0.41;100.00;147572.08;1765216;80;21354;-65
2021/12/26 11:08:16;;;;;;;11.33;5.12;;;;;;;-0.38;100.00;147579.78;1759723;80;21508;-64
2021/12/26 11:10:47;;;;;;;9.83;5.10;;;;;;;-0.32;100.00;147595.27;1770440;80;21047;-64
2021/12/26 11:13:20;;;;;;;9.10;4.92;;;;;;;-0.31;100.00;147597.84;1764702;80;21015;-64
2021/12/26 11:15:49;;;;;;;8.78;4.47;;;;;;;-0.27;100.00;147605.55;1754309;80;20946;-64
2021/12/26 11:18:18;;;;;;;12.23;4.60;;;;;;;-0.28;100.00;147602.97;1773252;80;21479;-65
2021/12/26 11:20:48;;;;;;;12.10;4.35;;;;;;;-0.33;100.00;147592.69;1765783;80;21123;-65
2021/12/26 11:23:20;;;;;;;12.35;4.90;;;;;;;-0.33;100.00;147592.69;1782664;80;21015;-64
2021/12/26 11:25:54;;;;;;;7.80;4.35;;;;;;;-0.31;100.00;147597.84;1760711;80;21042;-65
2021/12/26 11:28:28;;;;;;;9.88;5.00;;;;;;;-0.32;100.00;147595.27;1763213;79;21028;-63
2021/12/26 11:30:59;;;;;;;8.70;4.80;;;;;;;-0.30;100.00;147600.41;1763679;80;21482;-64
2021/12/26 11:33:26;;;;;;;8.60;4.35;;;;;;;-0.26;100.00;147609.38;1771367;80;21071;-64
2021/12/26 11:35:53;;;;;;;10.38;4.55;;;;;;;-0.24;100.00;147613.27;1728982;81;21111;-63
2021/12/26 11:38:22;;;;;;;9.70;4.87;;;;;;;-0.23;100.00;147615.83;1726041;81;21038;-64